This is the latest recevied weather packets stored in our database for station/object OH1KK. If no packets are shown the sender has not sent any weather packets the latest 1 day(s).
| Time | Temp. | Humidity | Pressure | Rain* | Wind** | Luminosity | Snow |
|---|---|---|---|---|---|---|---|
| 1836274219 | 9.44° C | 98% | 994.9 hPa | 0 mm | 1.79 m/s, 138° | - | - |
| 1836274055 | 8.89° C | 98% | 995.1 hPa | 0 mm | 0.45 m/s, 119° | - | - |
| 1778040261 | 2.22° C | 72% | 997.7 hPa | 0 mm | 1.34 m/s, 279° | - | - |
| 1778039347 | 1.67° C | 74% | 997.6 hPa | 0 mm | 1.79 m/s, 291° | - | - |
| 1778038493 | 1.11° C | 75% | 997.3 hPa | 0 mm | 2.24 m/s, 258° | - | - |
| 1778036662 | 0.56° C | 78% | 997.1 hPa | 0 mm | 1.34 m/s, 231° | - | - |
| 1778035748 | 0° C | 79% | 997.2 hPa | 0 mm | 0.45 m/s, 207° | - | - |
| 1778033979 | -0.56° C | 80% | 997 hPa | 0 mm | 0.45 m/s, 252° | - | - |
| 1778033064 | 0° C | 79% | 996.8 hPa | 0 mm | 0 m/s | - | - |
| 1778032149 | 0° C | 79% | 996.8 hPa | 0 mm | 0 m/s | - | - |
| 1778031295 | 0° C | 78% | 996.6 hPa | 0 mm | 0 m/s | - | - |
| 1778030380 | 0° C | 78% | 996.4 hPa | 0 mm | 0.45 m/s, 253° | - | - |
| 1778029465 | 0° C | 77% | 996.3 hPa | 0 mm | 0.89 m/s, 255° | - | - |
| 1778028550 | 0° C | 77% | 996 hPa | 0 mm | 0 m/s | - | - |
| 1778027696 | 0° C | 76% | 996.2 hPa | 0 mm | 0.89 m/s, 200° | - | - |
| 1778026780 | 0° C | 77% | 995.9 hPa | 0 mm | 0.45 m/s, 259° | - | - |
| 1778025865 | 0.56° C | 76% | 995.7 hPa | 0 mm | 0 m/s | - | - |
| 1778023181 | 1.11° C | 74% | 995.8 hPa | 0 mm | 0.89 m/s, 226° | - | - |
| 1778022266 | 1.11° C | 74% | 995.6 hPa | 0 mm | 0 m/s | - | - |
| 1778021350 | 1.11° C | 73% | 995.5 hPa | 0 mm | 0 m/s | - | - |
| 1778020496 | 1.67° C | 72% | 995.7 hPa | 0 mm | 0.45 m/s, 257° | - | - |
| 1778018666 | 2.22° C | 68% | 995.6 hPa | 0 mm | 0.45 m/s, 190° | - | - |
| 1778017750 | 2.22° C | 67% | 995.4 hPa | 0 mm | 0.89 m/s, 219° | - | - |
| 1778016896 | 2.22° C | 67% | 995.4 hPa | 0 mm | 0.45 m/s, 267° | - | - |
| 1778015981 | 2.22° C | 66% | 995.3 hPa | 0 mm | 0.45 m/s, 199° | - | - |
* Rain latest hour (hover to see other rain measurements)
** Current wind speed in m/s (hover to see current wind gust speed)